Time;durP1;ratioP1;P1;durP2;ratioP2;P2;SDS_P1;SDS_P2;PMS_P1;PMS_P2;Temp;Humidity;BMP_temperature;BMP_pressure;BME280_temperature;BME280_humidity;BME280_pressure;Samples;Min_cycle;Max_cycle;Signal;HPM_P1;HPM_P2
2022/11/16 00:00:24;;;;;;;34.88;16.95;;;23.30;57.20;;;;;;5026194;28;20052;-67
2022/11/16 00:02:53;;;;;;;35.00;16.73;;;23.20;57.30;;;;;;5048226;28;20064;-66
2022/11/16 00:05:19;;;;;;;34.22;17.25;;;23.30;57.30;;;;;;5046043;28;20386;-66
2022/11/16 00:07:45;;;;;;;33.58;17.55;;;23.20;57.30;;;;;;5049378;28;20036;-66
2022/11/16 00:10:11;;;;;;;33.45;16.60;;;23.20;57.40;;;;;;5050265;28;20410;-66
2022/11/16 00:12:38;;;;;;;37.95;17.40;;;23.10;57.50;;;;;;5043349;28;20043;-67
2022/11/16 00:15:08;;;;;;;32.20;16.38;;;23.20;57.50;;;;;;5029813;28;20062;-66
2022/11/16 00:17:34;;;;;;;35.38;17.27;;;23.20;57.50;;;;;;5043479;28;20116;-67
2022/11/16 00:20:00;;;;;;;31.08;17.05;;;23.20;57.60;;;;;;5053770;28;20040;-66
2022/11/16 00:22:26;;;;;;;35.42;17.58;;;23.20;57.60;;;;;;5047900;28;20029;-66
2022/11/16 00:24:51;;;;;;;34.53;17.00;;;23.10;57.60;;;;;;5053326;28;20343;-66
2022/11/16 00:27:17;;;;;;;40.78;18.83;;;23.20;57.50;;;;;;5046771;28;20124;-67
2022/11/16 00:29:43;;;;;;;35.45;17.08;;;23.10;57.50;;;;;;5042601;28;20029;-66
2022/11/16 00:32:11;;;;;;;32.53;17.23;;;23.20;57.50;;;;;;5047664;28;20090;-66
2022/11/16 00:34:38;;;;;;;33.78;17.50;;;23.20;57.50;;;;;;5044508;28;20049;-66
2022/11/16 00:37:04;;;;;;;31.08;17.02;;;23.10;57.40;;;;;;5037619;28;20037;-66
2022/11/16 00:39:30;;;;;;;31.52;16.30;;;23.10;57.50;;;;;;5033400;28;20375;-66
2022/11/16 00:41:56;;;;;;;34.33;16.52;;;23.20;57.50;;;;;;5032044;28;20052;-67
2022/11/16 00:44:22;;;;;;;48.08;19.60;;;23.10;57.50;;;;;;5032441;28;20033;-66
2022/11/16 00:46:48;;;;;;;34.83;16.42;;;23.20;57.30;;;;;;5030733;28;20040;-66
2022/11/16 00:49:15;;;;;;;33.92;17.48;;;23.00;57.20;;;;;;5032716;28;20097;-67
2022/11/16 00:51:41;;;;;;;35.08;15.05;;;23.00;57.30;;;;;;5041595;28;20115;-66
2022/11/16 00:54:08;;;;;;;36.33;18.33;;;23.10;57.40;;;;;;5043281;28;20055;-66
2022/11/16 00:56:36;;;;;;;37.67;17.42;;;23.00;57.40;;;;;;5048278;28;20115;-66
2022/11/16 00:59:03;;;;;;;38.17;17.30;;;22.90;57.50;;;;;;5032974;28;20041;-66
2022/11/16 01:01:29;;;;;;;35.38;17.30;;;22.90;57.50;;;;;;5037426;28;20031;-65
2022/11/16 01:03:55;;;;;;;34.50;16.45;;;22.90;57.60;;;;;;5046033;28;20030;-66
2022/11/16 01:06:22;;;;;;;41.17;17.45;;;22.90;57.60;;;;;;5047824;28;20032;-66
2022/11/16 01:08:49;;;;;;;37.75;17.50;;;22.90;57.60;;;;;;5032427;28;20377;-66
2022/11/16 01:14:02;;;;;;;35.58;16.35;;;23.00;57.50;;;;;;5013153;28;20180;-66
2022/11/16 01:16:28;;;;;;;38.75;18.90;;;22.90;57.40;;;;;;5029748;28;20071;-66
2022/11/16 01:18:55;;;;;;;37.95;17.17;;;23.00;57.50;;;;;;5062213;28;20037;-66
2022/11/16 01:21:21;;;;;;;40.97;18.15;;;23.00;57.40;;;;;;5036414;28;20029;-66
2022/11/16 01:23:48;;;;;;;37.70;17.25;;;22.90;57.30;;;;;;5052516;28;20050;-66
2022/11/16 01:26:14;;;;;;;31.92;17.67;;;22.80;57.20;;;;;;5052498;28;20040;-66
2022/11/16 01:28:41;;;;;;;43.38;18.50;;;22.90;57.20;;;;;;5029070;28;20021;-66
2022/11/16 01:31:09;;;;;;;37.70;17.25;;;22.90;57.20;;;;;;5043818;28;20123;-66
2022/11/16 01:33:37;;;;;;;38.13;17.10;;;22.90;57.30;;;;;;5035726;28;20037;-66
2022/11/16 01:36:13;;;;;;;32.05;16.23;;;22.80;57.20;;;;;;5011175;28;20056;-66
2022/11/16 01:38:44;;;;;;;36.05;16.95;;;22.80;57.30;;;;;;5050940;28;20037;-67
2022/11/16 01:41:22;;;;;;;32.65;16.92;;;22.70;57.20;;;;;;5035915;28;20041;-66
2022/11/16 01:44:00;;;;;;;36.53;18.45;;;22.70;57.20;;;;;;5044270;28;20356;-66
2022/11/16 01:46:32;;;;;;;39.65;17.52;;;22.70;57.30;;;;;;5030458;28;20534;-66
2022/11/16 01:49:05;;;;;;;35.10;19.85;;;22.80;57.20;;;;;;5048116;28;20056;-66
2022/11/16 01:51:33;;;;;;;41.97;20.65;;;22.60;57.20;;;;;;5044090;28;20102;-66
2022/11/16 01:54:02;;;;;;;46.55;21.33;;;22.60;57.20;;;;;;5054729;28;20040;-67
2022/11/16 01:56:31;;;;;;;47.40;23.05;;;22.60;57.30;;;;;;5031722;28;20049;-66
2022/11/16 01:59:07;;;;;;;43.03;20.98;;;22.70;57.30;;;;;;5029327;28;20049;-66
2022/11/16 02:01:33;;;;;;;44.80;21.42;;;22.70;57.20;;;;;;5048771;28;20481;-66
2022/11/16 02:04:01;;;;;;;42.38;20.05;;;22.80;57.10;;;;;;5049071;28;20090;-67
2022/11/16 02:06:36;;;;;;;40.95;21.00;;;22.70;57.00;;;;;;5045487;28;20072;-67
2022/11/16 02:12:50;;;;;;;39.70;19.42;;;22.80;56.90;;;;;;5048085;28;20048;-66
2022/11/16 02:15:36;;;;;;;34.88;18.02;;;22.70;56.80;;;;;;5030010;28;20033;-66
2022/11/16 02:18:26;;;;;;;36.15;16.92;;;22.90;56.80;;;;;;5009035;28;20045;-67
2022/11/16 02:21:05;;;;;;;44.78;19.73;;;22.70;56.70;;;;;;5007128;28;20075;-66
2022/11/16 02:23:49;;;;;;;37.17;17.90;;;22.70;56.70;;;;;;5011050;28;20025;-66
2022/11/16 02:26:36;;;;;;;36.35;19.25;;;22.80;56.60;;;;;;5026015;28;20087;-66
2022/11/16 02:29:13;;;;;;;42.42;18.95;;;22.80;56.50;;;;;;5012376;28;20045;-66
2022/11/16 02:32:16;;;;;;;43.60;18.73;;;22.70;56.70;;;;;;5014411;28;20040;-66
2022/11/16 02:34:50;;;;;;;34.22;17.00;;;22.70;56.60;;;;;;4986693;28;20098;-66
2022/11/16 02:37:20;;;;;;;33.08;18.42;;;22.60;56.50;;;;;;4980440;28;20100;-66
2022/11/16 02:39:51;;;;;;;35.67;17.50;;;22.70;56.60;;;;;;4987949;28;20065;-66
2022/11/16 02:42:32;;;;;;;35.92;17.17;;;22.60;56.60;;;;;;4989227;28;20042;-66
2022/11/16 02:45:01;;;;;;;29.85;16.65;;;22.60;56.70;;;;;;4971839;28;20541;-66
2022/11/16 02:47:32;;;;;;;35.42;16.80;;;22.60;56.70;;;;;;4987826;28;20050;-67
2022/11/16 02:50:06;;;;;;;38.58;17.42;;;22.60;56.80;;;;;;5017149;28;20041;-67
2022/11/16 02:52:33;;;;;;;32.22;18.63;;;22.60;56.70;;;;;;5023570;28;20042;-66
2022/11/16 02:55:00;;;;;;;41.90;18.00;;;22.60;56.70;;;;;;5017903;28;20065;-66
2022/11/16 02:57:53;;;;;;;29.33;15.32;;;22.50;56.60;;;;;;5006092;28;20068;-67
2022/11/16 03:00:42;;;;;;;34.55;17.48;;;22.60;56.60;;;;;;5013862;28;20087;-66
2022/11/16 03:03:20;;;;;;;38.75;18.63;;;22.60;56.50;;;;;;4985557;28;20054;-67
2022/11/16 03:05:53;;;;;;;38.95;18.85;;;22.60;56.40;;;;;;4983426;28;20120;-67
2022/11/16 03:08:19;;;;;;;;;;;22.70;56.50;;;;;;4984046;28;20042;-66
2022/11/16 03:13:40;;;;;;;35.65;17.45;;;22.60;56.40;;;;;;4989936;28;20598;-66
2022/11/16 03:16:15;;;;;;;42.88;19.95;;;22.60;56.30;;;;;;4983397;28;20044;-66
2022/11/16 03:18:43;;;;;;;33.45;15.88;;;22.70;56.40;;;;;;4991447;28;20045;-67
2022/11/16 03:21:21;;;;;;;35.70;17.33;;;22.50;56.30;;;;;;5005121;28;20074;-66
2022/11/16 03:23:47;;;;;;;39.92;18.42;;;22.60;56.40;;;;;;4988857;28;20093;-66
2022/11/16 03:26:19;;;;;;;49.08;20.35;;;22.50;56.30;;;;;;4980910;28;20045;-66
2022/11/16 03:29:09;;;;;;;38.38;18.92;;;22.60;56.50;;;;;;4977607;28;20819;-66
2022/11/16 03:31:46;;;;;;;41.63;19.80;;;22.60;56.50;;;;;;4997671;28;20026;-67
2022/11/16 03:34:19;;;;;;;38.95;19.05;;;22.50;56.50;;;;;;4970455;28;20046;-66
2022/11/16 03:36:48;;;;;;;35.65;18.13;;;22.50;56.50;;;;;;4990353;28;20215;-66
2022/11/16 03:39:25;;;;;;;39.08;18.33;;;22.50;56.50;;;;;;4988286;28;20034;-66
2022/11/16 03:41:53;;;;;;;33.42;17.15;;;22.40;56.40;;;;;;5030855;28;20037;-66
2022/11/16 03:44:20;;;;;;;38.75;17.40;;;22.40;56.40;;;;;;5032402;28;20079;-67
2022/11/16 03:46:47;;;;;;;31.83;16.38;;;22.50;56.40;;;;;;5031745;28;20029;-67
2022/11/16 03:49:14;;;;;;;30.23;16.58;;;22.50;56.30;;;;;;5043868;28;20033;-67
2022/11/16 03:51:41;;;;;;;39.30;18.48;;;22.50;56.30;;;;;;5046439;28;20037;-66
2022/11/16 03:54:07;;;;;;;39.42;18.42;;;22.60;56.30;;;;;;5048133;28;20454;-67
2022/11/16 03:56:34;;;;;;;35.25;18.70;;;22.50;56.20;;;;;;5002987;28;20555;-66
2022/11/16 03:59:01;;;;;;;29.98;14.30;;;22.50;56.20;;;;;;5033458;28;20041;-66
2022/11/16 04:01:29;;;;;;;31.50;14.65;;;22.60;56.10;;;;;;5038011;28;20440;-66
2022/11/16 04:03:55;;;;;;;24.73;13.20;;;22.70;56.20;;;;;;5047831;28;20029;-67
2022/11/16 04:25:48;;;;;;;29.17;14.52;;;22.40;56.10;;;;;;5041721;28;20218;-66
2022/11/16 04:28:17;;;;;;;27.13;14.63;;;22.50;56.30;;;;;;5033568;28;20414;-66
2022/11/16 04:39:09;;;;;;;31.42;14.27;;;22.40;56.10;;;;;;5048268;28;20025;-67
2022/11/16 04:44:20;;;;;;;32.50;15.70;;;22.40;56.00;;;;;;5046077;28;20053;-66
2022/11/16 04:47:05;;;;;;;33.08;15.88;;;22.50;55.90;;;;;;5036648;28;20036;-66
2022/11/16 04:49:32;;;;;;;30.15;14.20;;;22.60;55.80;;;;;;5056827;28;20044;-67
2022/11/16 04:51:58;;;;;;;30.58;15.05;;;22.50;55.80;;;;;;5065005;28;20034;-67
2022/11/16 04:54:25;;;;;;;31.30;15.70;;;22.60;55.70;;;;;;5041354;28;20067;-66
2022/11/16 04:56:51;;;;;;;29.50;15.13;;;22.60;55.60;;;;;;5038626;28;20453;-66
2022/11/16 04:59:17;;;;;;;33.92;16.92;;;22.60;55.70;;;;;;5031913;28;20091;-66
2022/11/16 05:04:28;;;;;;;33.10;17.35;;;22.60;55.80;;;;;;5047337;28;20038;-66
2022/11/16 05:06:54;;;;;;;30.60;17.35;;;22.50;55.80;;;;;;5043311;28;20038;-67
2022/11/16 05:09:20;;;;;;;34.40;17.10;;;22.50;55.80;;;;;;5013052;28;20064;-66
2022/11/16 05:11:46;;;;;;;33.35;16.52;;;22.50;55.80;;;;;;5030762;28;20525;-66
2022/11/16 05:14:12;;;;;;;35.47;18.13;;;22.40;55.80;;;;;;5039196;28;20061;-66
2022/11/16 05:16:40;;;;;;;43.65;18.63;;;22.50;55.90;;;;;;5063352;28;20083;-67
2022/11/16 05:21:52;;;;;;;39.28;18.48;;;22.40;55.80;;;;;;5037003;28;20101;-66
2022/11/16 05:24:34;;;;;;;37.53;19.35;;;22.40;55.80;;;;;;5033133;28;20474;-67
2022/11/16 05:27:06;;;;;;;46.10;19.67;;;22.50;55.80;;;;;;5029424;28;20112;-66
2022/11/16 05:29:32;;;;;;;40.75;21.05;;;22.40;55.70;;;;;;5032654;28;20037;-66
2022/11/16 05:31:59;;;;;;;41.03;17.90;;;22.40;55.80;;;;;;5045578;28;20033;-66
2022/11/16 05:34:26;;;;;;;42.08;19.55;;;22.50;56.00;;;;;;5045469;28;20060;-66
2022/11/16 05:36:52;;;;;;;47.97;19.95;;;22.40;56.00;;;;;;5069360;28;20052;-66
2022/11/16 05:39:19;;;;;;;41.53;19.58;;;22.40;56.00;;;;;;5046421;28;20050;-67
2022/11/16 05:41:46;;;;;;;42.92;19.35;;;22.40;56.00;;;;;;5043046;28;20390;-67
2022/11/16 05:44:13;;;;;;;41.65;19.23;;;22.40;55.90;;;;;;5032919;28;20052;-67
2022/11/16 05:46:40;;;;;;;41.47;18.00;;;22.40;55.90;;;;;;5054300;28;20068;-66
2022/11/16 05:49:08;;;;;;;40.83;19.05;;;22.40;55.90;;;;;;5052878;28;20079;-66
2022/11/16 05:51:35;;;;;;;40.28;19.13;;;22.40;55.90;;;;;;5052831;28;20059;-66
2022/11/16 05:54:02;;;;;;;46.30;18.40;;;22.30;55.80;;;;;;5047022;28;20031;-67
2022/11/16 05:56:29;;;;;;;40.42;19.00;;;22.50;55.90;;;;;;5046949;28;20351;-66
2022/11/16 05:58:57;;;;;;;44.47;20.92;;;22.50;55.80;;;;;;5032834;28;20040;-65
2022/11/16 06:01:24;;;;;;;46.38;19.75;;;22.40;55.60;;;;;;5038718;28;20047;-66
2022/11/16 06:03:51;;;;;;;44.45;19.73;;;22.30;55.60;;;;;;5049289;28;20036;-66
2022/11/16 06:06:18;;;;;;;42.67;20.52;;;22.40;55.60;;;;;;5049976;28;20040;-66
2022/11/16 06:08:45;;;;;;;45.15;21.20;;;22.40;55.60;;;;;;5032061;28;20041;-66
2022/11/16 06:11:16;;;;;;;50.40;20.33;;;22.40;55.70;;;;;;5048210;28;20191;-66
2022/11/16 06:13:42;;;;;;;40.88;20.70;;;22.30;55.80;;;;;;5026606;28;20104;-66
2022/11/16 06:16:10;;;;;;;46.75;21.98;;;22.40;55.80;;;;;;5032386;28;20039;-66
2022/11/16 06:18:38;;;;;;;42.05;20.48;;;22.40;55.80;;;;;;5050239;28;20028;-67
2022/11/16 06:21:05;;;;;;;36.25;19.50;;;22.20;55.80;;;;;;5038455;28;20732;-67
2022/11/16 06:23:31;;;;;;;46.75;20.38;;;22.20;55.80;;;;;;5013995;28;20030;-66
2022/11/16 06:25:58;;;;;;;40.83;20.63;;;22.20;55.80;;;;;;5030226;28;20472;-65
2022/11/16 06:28:26;;;;;;;51.00;20.67;;;22.10;55.80;;;;;;5029106;28;20037;-66
2022/11/16 06:30:54;;;;;;;38.65;19.02;;;22.20;55.90;;;;;;5029651;28;20112;-67
2022/11/16 06:33:23;;;;;;;55.10;20.83;;;22.10;55.80;;;;;;5044988;28;20623;-67
2022/11/16 06:35:49;;;;;;;54.03;20.95;;;22.30;55.80;;;;;;5023896;28;20549;-69
2022/11/16 06:38:19;;;;;;;45.80;20.27;;;22.30;55.80;;;;;;5029307;28;20022;-67
2022/11/16 06:40:55;;;;;;;39.75;21.38;;;22.30;56.10;;;;;;5058984;28;20080;-69
2022/11/16 06:43:25;;;;;;;34.53;18.00;;;22.30;50.30;;;;;;5040692;28;20037;-66
2022/11/16 06:45:54;;;;;;;39.72;17.67;;;22.40;49.80;;;;;;5039088;28;20057;-67
2022/11/16 06:48:20;;;;;;;36.60;18.00;;;22.40;50.00;;;;;;5042183;28;20038;-66
2022/11/16 06:50:48;;;;;;;32.17;16.25;;;22.60;49.70;;;;;;5046722;28;20156;-66
2022/11/16 06:53:17;;;;;;;35.17;16.30;;;22.60;49.40;;;;;;5049908;28;20044;-67
2022/11/16 06:55:44;;;;;;;34.33;18.92;;;22.70;49.50;;;;;;5049853;28;20033;-67
2022/11/16 06:58:11;;;;;;;34.33;18.20;;;22.70;49.30;;;;;;5039972;28;20142;-67
2022/11/16 07:00:37;;;;;;;40.97;19.35;;;22.80;49.40;;;;;;5039651;28;20029;-67
2022/11/16 07:03:03;;;;;;;35.20;18.60;;;22.90;49.50;;;;;;5035125;28;20083;-67
2022/11/16 07:05:30;;;;;;;31.65;17.55;;;23.00;49.30;;;;;;5041849;28;20036;-67
2022/11/16 07:07:57;;;;;;;36.13;17.15;;;23.00;49.20;;;;;;5031951;28;20052;-70
2022/11/16 07:10:24;;;;;;;41.85;19.55;;;23.10;49.80;;;;;;5049709;28;20132;-71
2022/11/16 07:12:51;;;;;;;48.40;20.50;;;23.20;57.60;;;;;;5031782;28;20033;-72
2022/11/16 07:15:19;;;;;;;49.60;20.45;;;23.10;57.50;;;;;;5030764;28;20064;-70
2022/11/16 07:17:47;;;;;;;44.65;19.92;;;23.20;58.40;;;;;;5014296;28;20087;-69
2022/11/16 07:20:13;;;;;;;44.72;21.67;;;23.20;60.90;;;;;;5025756;28;20029;-71
2022/11/16 07:22:39;;;;;;;42.00;19.65;;;23.10;60.40;;;;;;5032745;28;20449;-68
2022/11/16 07:25:09;;;;;;;45.83;21.60;;;23.10;60.60;;;;;;5029882;28;20025;-69
2022/11/16 07:27:35;;;;;;;42.95;20.02;;;23.00;60.40;;;;;;5029609;28;20086;-69
2022/11/16 07:30:01;;;;;;;58.92;20.48;;;23.00;60.50;;;;;;5014926;28;20046;-69
2022/11/16 07:32:57;;;;;;;;;;;22.90;60.80;;;;;;5015067;28;20029;-70
2022/11/16 07:35:43;;;;;;;48.95;21.02;;;23.00;60.90;;;;;;5030335;28;19952;-69
2022/11/16 07:38:10;;;;;;;45.47;20.70;;;22.90;61.00;;;;;;5014759;28;20530;-71
2022/11/16 07:40:36;;;;;;;48.25;21.27;;;22.90;61.10;;;;;;5015944;28;20054;-70
2022/11/16 07:43:02;;;;;;;43.17;21.15;;;22.90;61.40;;;;;;5013389;28;20045;-69
2022/11/16 07:45:33;;;;;;;47.67;20.08;;;23.00;61.40;;;;;;5030739;28;20034;-72
2022/11/16 07:48:05;;;;;;;36.88;16.67;;;23.00;61.30;;;;;;5044579;28;20041;-70
2022/11/16 07:50:51;;;;;;;37.10;16.52;;;22.90;62.10;;;;;;4991328;28;20042;-71
2022/11/16 07:53:18;;;;;;;34.58;15.07;;;23.20;61.00;;;;;;4998431;28;20046;-71
2022/11/16 07:55:54;;;;;;;34.33;15.07;;;23.30;60.40;;;;;;4992376;28;20073;-71
2022/11/16 07:58:21;;;;;;;35.97;15.23;;;23.50;59.80;;;;;;4986996;28;20042;-71
2022/11/16 08:00:48;;;;;;;38.75;17.33;;;23.50;59.10;;;;;;4976091;28;20045;-70
2022/11/16 08:03:16;;;;;;;44.58;18.25;;;23.60;58.80;;;;;;4974522;28;20094;-67
2022/11/16 08:05:43;;;;;;;38.63;18.15;;;23.50;58.70;;;;;;4971713;28;20126;-70
2022/11/16 08:08:11;;;;;;;37.50;16.13;;;23.60;58.30;;;;;;4972920;28;20054;-68
2022/11/16 08:10:37;;;;;;;32.47;15.45;;;23.60;57.50;;;;;;4972404;28;20163;-67
2022/11/16 08:13:04;;;;;;;43.08;18.85;;;23.60;57.10;;;;;;4970043;28;20043;-67
2022/11/16 08:15:30;;;;;;;37.75;18.00;;;23.70;56.50;;;;;;4968194;28;20050;-70
2022/11/16 08:17:59;;;;;;;35.40;17.65;;;23.70;56.40;;;;;;4933828;29;20194;-69
2022/11/16 08:20:27;;;;;;;10.00;4.97;;;23.80;55.80;;;;;;4933812;29;20122;-67
2022/11/16 08:22:58;;;;;;;16.77;7.80;;;23.80;55.10;;;;;;4934151;29;20038;-70
2022/11/16 08:25:24;;;;;;;5.82;3.40;;;23.80;54.30;;;;;;4931811;29;20047;-69
2022/11/16 08:27:50;;;;;;;12.65;7.55;;;24.00;53.30;;;;;;4960054;28;20050;-68
2022/11/16 08:30:19;;;;;;;7.78;5.18;;;24.20;53.10;;;;;;4975235;28;20038;-70
2022/11/16 08:32:45;;;;;;;2.97;2.00;;;24.30;52.30;;;;;;4991269;28;20034;-74
2022/11/16 08:35:11;;;;;;;30.38;14.95;;;24.20;51.60;;;;;;4974468;28;20594;-69
2022/11/16 08:37:37;;;;;;;37.65;18.45;;;24.10;53.10;;;;;;5024487;28;20095;-69
2022/11/16 08:40:04;;;;;;;34.33;17.85;;;24.20;48.50;;;;;;5032280;28;20463;-69
2022/11/16 08:42:35;;;;;;;37.22;18.55;;;24.10;49.80;;;;;;5018788;28;20062;-71
2022/11/16 08:45:01;;;;;;;38.30;18.83;;;23.90;50.90;;;;;;5027175;28;20418;-70
2022/11/16 08:47:27;;;;;;;44.97;19.75;;;23.90;52.90;;;;;;5031242;28;20033;-71
2022/11/16 08:49:57;;;;;;;39.90;18.85;;;23.70;53.50;;;;;;5029079;28;20033;-69
2022/11/16 08:52:25;;;;;;;40.17;20.02;;;23.60;56.80;;;;;;5028680;28;20032;-67
2022/11/16 08:54:52;;;;;;;39.63;18.98;;;23.50;56.10;;;;;;5031992;28;20104;-68
2022/11/16 08:57:18;;;;;;;34.45;18.33;;;23.50;56.60;;;;;;5031592;28;20468;-68
2022/11/16 08:59:47;;;;;;;30.25;14.93;;;23.50;57.10;;;;;;5014967;28;20060;-68
2022/11/16 09:02:13;;;;;;;31.30;15.80;;;23.50;57.40;;;;;;5032889;28;20112;-70
2022/11/16 09:04:39;;;;;;;36.45;17.73;;;23.60;57.00;;;;;;5033226;28;20121;-70
2022/11/16 09:07:05;;;;;;;35.75;17.48;;;23.60;56.90;;;;;;5032921;28;20099;-70
2022/11/16 09:09:31;;;;;;;39.55;18.98;;;23.60;57.20;;;;;;5032934;28;20096;-70
2022/11/16 09:11:57;;;;;;;35.47;17.42;;;23.60;57.50;;;;;;5029572;28;20030;-71
2022/11/16 09:14:23;;;;;;;40.20;18.60;;;23.60;57.80;;;;;;5031187;28;20025;-69
2022/11/16 09:16:49;;;;;;;41.92;20.33;;;23.60;57.40;;;;;;5033071;28;20379;-73
2022/11/16 09:19:16;;;;;;;39.00;18.30;;;23.80;57.00;;;;;;5030663;28;20049;-72
2022/11/16 09:21:44;;;;;;;43.13;19.58;;;23.80;57.20;;;;;;5011792;28;20037;-73
2022/11/16 09:24:10;;;;;;;43.63;20.08;;;23.80;57.20;;;;;;5025677;28;20136;-71
2022/11/16 09:26:36;;;;;;;45.70;20.52;;;23.90;57.30;;;;;;5030705;28;20048;-75
2022/11/16 09:29:03;;;;;;;36.08;17.92;;;23.80;57.50;;;;;;5029033;28;20949;-73
2022/11/16 09:31:33;;;;;;;31.20;17.40;;;23.80;53.70;;;;;;5045315;28;20036;-74
2022/11/16 09:33:59;;;;;;;29.88;15.57;;;23.90;54.70;;;;;;5031234;28;20039;-72
2022/11/16 09:36:27;;;;;;;35.08;16.15;;;24.30;48.80;;;;;;5032602;28;20121;-73
2022/11/16 09:38:53;;;;;;;36.17;16.58;;;24.30;53.90;;;;;;5031677;28;20033;-71
2022/11/16 09:42:05;;;;;;;30.75;16.67;;;24.30;56.30;;;;;;5029787;28;20418;-72
2022/11/16 09:44:58;;;;;;;41.08;19.45;;;24.40;56.70;;;;;;5029253;28;20087;-72
2022/11/16 09:47:37;;;;;;;37.88;18.83;;;24.40;57.20;;;;;;5029959;28;20054;-71
2022/11/16 09:50:06;;;;;;;38.85;19.98;;;24.20;57.60;;;;;;5032687;28;20383;-71
2022/11/16 09:52:34;;;;;;;37.95;21.00;;;24.10;58.00;;;;;;5030674;28;20508;-73
2022/11/16 09:55:22;;;;;;;43.50;20.08;;;24.20;57.90;;;;;;5031417;28;20504;-69
2022/11/16 09:57:51;;;;;;;39.78;20.48;;;24.10;58.20;;;;;;5029232;28;20076;-69
2022/11/16 10:00:21;;;;;;;40.08;20.52;;;24.10;58.70;;;;;;5032516;28;20366;-70
2022/11/16 10:03:03;;;;;;;45.33;21.58;;;24.10;58.70;;;;;;5044056;28;20025;-69
2022/11/16 10:05:37;;;;;;;30.67;17.15;;;23.90;59.10;;;;;;5049382;28;20037;-72
2022/11/16 10:08:09;;;;;;;33.30;17.05;;;23.90;49.60;;;;;;5036420;28;20792;-67
2022/11/16 10:10:42;;;;;;;34.63;16.20;;;24.00;47.70;;;;;;5022905;28;21685;-67
2022/11/16 10:13:40;;;;;;;27.83;13.05;;;24.00;46.40;;;;;;5025962;28;20044;-68
2022/11/16 10:16:37;;;;;;;24.23;14.18;;;24.10;49.80;;;;;;5027676;28;20044;-67
2022/11/16 10:19:24;;;;;;;30.60;14.82;;;24.40;51.90;;;;;;5027285;28;20065;-69
2022/11/16 10:22:16;;;;;;;27.70;14.38;;;24.80;49.40;;;;;;5038482;28;20123;-69
2022/11/16 10:24:52;;;;;;;31.67;15.50;;;25.10;55.40;;;;;;5008336;28;20030;-68
2022/11/16 10:27:37;;;;;;;28.67;14.52;;;25.20;51.80;;;;;;5004095;28;20061;-68
2022/11/16 10:30:11;;;;;;;26.42;15.32;;;25.40;52.80;;;;;;5006125;28;20427;-68
2022/11/16 10:32:58;;;;;;;33.60;18.83;;;25.60;55.80;;;;;;4998507;28;20050;-69
2022/11/16 10:35:41;;;;;;;36.38;18.05;;;25.60;44.90;;;;;;5006391;28;20034;-69
2022/11/16 10:38:16;;;;;;;36.67;20.50;;;25.30;44.80;;;;;;5010844;28;20107;-68
2022/11/16 10:40:46;;;;;;;35.55;19.38;;;25.20;47.70;;;;;;5002102;28;20034;-65
2022/11/16 10:43:17;;;;;;;31.27;18.80;;;25.20;47.30;;;;;;4967379;28;20050;-66
2022/11/16 10:46:02;;;;;;;31.38;16.05;;;25.30;47.70;;;;;;4993466;28;20026;-68
2022/11/16 10:48:28;;;;;;;37.47;17.77;;;25.10;45.40;;;;;;5005335;28;20072;-66
2022/11/16 10:50:54;;;;;;;32.17;15.50;;;25.10;44.50;;;;;;5008167;28;20110;-66
2022/11/16 10:53:34;;;;;;;30.30;17.38;;;25.00;43.60;;;;;;4994681;28;20053;-67
2022/11/16 10:56:30;;;;;;;34.63;18.55;;;25.00;44.40;;;;;;4999187;28;20077;-67
2022/11/16 10:59:05;;;;;;;31.77;17.70;;;24.90;44.30;;;;;;4925185;29;20095;-67
2022/11/16 11:01:42;;;;;;;35.35;18.35;;;24.90;44.00;;;;;;4939040;29;20155;-67
2022/11/16 11:04:25;;;;;;;32.03;17.90;;;24.80;43.20;;;;;;4957838;28;20039;-67
2022/11/16 11:06:55;;;;;;;;;;;24.80;44.20;;;;;;4968043;28;20046;-67
2022/11/16 11:09:33;;;;;;;36.20;19.20;;;24.60;43.50;;;;;;4967489;28;19910;-67
2022/11/16 11:15:10;;;;;;;29.88;17.65;;;24.60;43.50;;;;;;4967049;28;20087;-69
2022/11/16 11:17:46;;;;;;;29.50;17.67;;;24.50;43.80;;;;;;4965821;28;20050;-67
2022/11/16 11:20:14;;;;;;;46.15;26.88;;;24.50;44.20;;;;;;4964671;28;20061;-68
2022/11/16 11:23:01;;;;;;;33.42;17.20;;;24.40;44.40;;;;;;4963780;28;20564;-68
2022/11/16 11:25:29;;;;;;;36.05;19.95;;;24.50;44.10;;;;;;4967805;28;20078;-69
2022/11/16 11:28:39;;;;;;;37.67;22.90;;;24.40;44.30;;;;;;4948324;28;20059;-70
2022/11/16 11:31:15;;;;;;;24.85;14.15;;;24.40;40.90;;;;;;4930246;29;20051;-69
2022/11/16 11:33:50;;;;;;;32.03;16.52;;;24.30;42.30;;;;;;4913532;29;20040;-68
2022/11/16 11:36:32;;;;;;;28.35;16.33;;;24.20;42.60;;;;;;4983184;28;20049;-69
2022/11/16 11:39:04;;;;;;;35.00;16.25;;;24.20;42.80;;;;;;4985629;28;20042;-71
2022/11/16 11:41:37;;;;;;;32.42;13.98;;;24.10;42.70;;;;;;4987093;28;20069;-70
2022/11/16 11:44:29;;;;;;;36.20;16.00;;;24.10;43.20;;;;;;4980485;28;20058;-69
2022/11/16 11:47:10;;;;;;;27.77;15.02;;;23.90;43.00;;;;;;4994428;28;20492;-69
2022/11/16 11:49:41;;;;;;;25.48;14.00;;;24.00;43.10;;;;;;4987592;28;20480;-68
2022/11/16 11:52:19;;;;;;;29.20;14.27;;;24.00;43.50;;;;;;4986425;28;20031;-69
2022/11/16 11:54:47;;;;;;;26.00;14.95;;;23.90;43.00;;;;;;4987816;28;20050;-69
2022/11/16 11:57:21;;;;;;;25.92;15.05;;;23.90;42.50;;;;;;4986881;28;20157;-69
2022/11/16 11:59:51;;;;;;;31.80;17.65;;;23.80;42.40;;;;;;4988372;28;20038;-69
2022/11/16 12:03:14;;;;;;;26.50;16.05;;;23.90;41.80;;;;;;4988459;28;20077;-69
2022/11/16 12:05:50;;;;;;;30.58;14.30;;;23.70;42.50;;;;;;4948360;29;20035;-69
2022/11/16 12:08:28;;;;;;;33.60;18.00;;;23.70;43.50;;;;;;4976643;28;20046;-68
2022/11/16 12:11:22;;;;;;;26.30;15.13;;;23.60;43.20;;;;;;4984616;28;20173;-69
2022/11/16 12:13:51;;;;;;;37.47;18.33;;;23.70;41.50;;;;;;4962457;28;20059;-68
2022/11/16 12:16:43;;;;;;;40.70;21.70;;;23.70;52.40;;;;;;4962937;28;20083;-68
2022/11/16 12:19:16;;;;;;;50.70;22.88;;;23.80;53.20;;;;;;4909652;29;20051;-69
2022/11/16 12:21:59;;;;;;;44.95;22.42;;;23.70;54.00;;;;;;4908134;29;20100;-70
2022/11/16 12:24:48;;;;;;;47.28;21.58;;;23.70;55.20;;;;;;4898027;29;20048;-71
2022/11/16 12:27:29;;;;;;;42.55;22.23;;;23.60;55.40;;;;;;4852360;29;20073;-68
2022/11/16 12:30:00;;;;;;;44.45;21.05;;;23.60;55.40;;;;;;4857713;29;20038;-70
2022/11/16 12:32:39;;;;;;;51.72;24.90;;;23.50;55.60;;;;;;4858734;29;20117;-70
2022/11/16 12:35:22;;;;;;;47.25;21.92;;;23.50;55.60;;;;;;4856813;29;20503;-70
2022/11/16 12:38:15;;;;;;;43.92;22.20;;;23.40;55.50;;;;;;4857088;29;20058;-69
2022/11/16 12:40:41;;;;;;;43.58;19.95;;;23.50;55.70;;;;;;4859269;29;20090;-69
2022/11/16 12:43:09;;;;;;;47.13;22.33;;;23.30;55.80;;;;;;4859549;29;20124;-68
2022/11/16 12:46:00;;;;;;;45.58;21.17;;;23.40;55.90;;;;;;4854234;29;20052;-70
2022/11/16 12:48:37;;;;;;;46.60;21.52;;;23.40;56.10;;;;;;4868377;29;20116;-70
2022/11/16 12:51:34;;;;;;;43.70;21.70;;;23.20;56.10;;;;;;4861457;29;20073;-69
2022/11/16 12:54:27;;;;;;;44.25;21.23;;;23.20;56.20;;;;;;4861802;29;20072;-69
2022/11/16 12:57:11;;;;;;;35.55;18.63;;;23.20;56.20;;;;;;4916467;29;20055;-69
2022/11/16 12:59:48;;;;;;;49.22;20.27;;;23.40;56.30;;;;;;4932985;29;20036;-70
2022/11/16 13:02:33;;;;;;;48.83;23.10;;;23.50;56.40;;;;;;4915271;29;20047;-67
2022/11/16 13:05:28;;;;;;;50.35;21.90;;;23.50;56.30;;;;;;5007878;28;20072;-68
2022/11/16 13:08:03;;;;;;;47.65;22.23;;;23.30;56.30;;;;;;5008974;28;20049;-68
2022/11/16 13:10:34;;;;;;;53.58;22.65;;;23.50;56.50;;;;;;4992786;28;20379;-69
2022/11/16 13:13:03;;;;;;;44.35;21.92;;;23.50;56.50;;;;;;5008955;28;20578;-70
2022/11/16 13:15:39;;;;;;;43.30;21.88;;;23.50;56.50;;;;;;5009497;28;20046;-70
2022/11/16 13:18:11;;;;;;;46.60;21.80;;;23.50;56.60;;;;;;4993330;28;20057;-70
2022/11/16 13:20:53;;;;;;;51.95;22.92;;;23.50;56.50;;;;;;4991459;28;20025;-69
2022/11/16 13:23:37;;;;;;;37.65;19.10;;;23.40;56.00;;;;;;5008863;28;20038;-70
2022/11/16 13:26:22;;;;;;;41.67;18.85;;;23.30;56.50;;;;;;5009572;28;20889;-70
2022/11/16 13:28:51;;;;;;;47.35;21.08;;;23.40;56.50;;;;;;5010076;28;20165;-70
2022/11/16 13:31:41;;;;;;;46.22;21.88;;;23.40;56.40;;;;;;5010179;28;20042;-70
2022/11/16 13:34:24;;;;;;;40.67;20.38;;;23.40;56.50;;;;;;5009917;28;20096;-70
2022/11/16 13:36:50;;;;;;;;;;;23.30;56.70;;;;;;5010179;28;20033;-70
2022/11/16 13:39:18;;;;;;;38.33;18.77;;;23.40;56.80;;;;;;5009512;28;19936;-69
2022/11/16 13:41:49;;;;;;;44.90;20.63;;;23.30;57.00;;;;;;5008727;28;20111;-70